Portland, Oregon
Traffic Map
Current Weather Conditions
Portland, Oregon
Few Clouds
Few Clouds
12°
Feels Like: 12°
Wind Chill: 12° Ceiling: Unl
Heat Index: 12° Visibility: 10mi
Dew Point: Wind: 0mph
Humidity: 55% Direction: ° ()
Pressure: 30.23in Gusts: 0mph
Raw Report DataKPDX 091753Z 00000KT 10SM FEW250 12/03 A3023 RMK AO2 SLP235 T01170028 10117 20061 50006
Traffic Incident Summary
Active as of:
Severity:
Category:
InformationThere was an issue retrieving the traffic information for this location. Please try a different location or try again shortly.
Advertisements
Track Severe Weather on mobile